createdAt,value
2022-12-05T00:01:24.569Z,100898.91
2022-12-05T00:03:53.653Z,100898.00
2022-12-05T00:06:21.906Z,100894.94
2022-12-05T00:08:49.163Z,100895.94
2022-12-05T00:11:19.974Z,100903.41
2022-12-05T00:13:47.939Z,100892.88
2022-12-05T00:16:17.026Z,100890.03
2022-12-05T00:18:43.747Z,100883.31
2022-12-05T00:21:16.844Z,100882.22
2022-12-05T00:23:43.821Z,100877.28
2022-12-05T00:26:11.381Z,100874.06
2022-12-05T00:28:39.181Z,100875.16
2022-12-05T00:31:14.713Z,100879.19
2022-12-05T00:33:42.446Z,100888.59
2022-12-05T00:36:12.154Z,100888.44
2022-12-05T00:38:39.225Z,100886.75
2022-12-05T00:41:11.513Z,100881.63
2022-12-05T00:43:38.935Z,100878.91
2022-12-05T00:46:09.506Z,100877.72
2022-12-05T00:48:37.071Z,100882.81
2022-12-05T00:51:10.434Z,100887.16
2022-12-05T00:53:37.632Z,100887.63
2022-12-05T00:56:08.297Z,100876.00
2022-12-05T00:58:35.497Z,100879.50
2022-12-05T01:01:10.368Z,100879.56
2022-12-05T01:03:37.178Z,100873.66
2022-12-05T01:06:06.270Z,100873.56
2022-12-05T01:08:34.322Z,100876.34
2022-12-05T01:11:01.898Z,100865.38
2022-12-05T01:13:30.325Z,100861.53
2022-12-05T01:15:57.276Z,100865.88
2022-12-05T01:18:25.345Z,100870.75
2022-12-05T01:20:53.017Z,100873.19
2022-12-05T01:23:20.260Z,100875.25
2022-12-05T01:25:50.389Z,100869.47
2022-12-05T01:28:17.592Z,100873.97
2022-12-05T01:30:48.094Z,100886.28
2022-12-05T01:33:15.334Z,100888.34
2022-12-05T01:35:42.481Z,100879.94
2022-12-05T01:38:11.854Z,100889.13
2022-12-05T01:40:38.829Z,100892.44
2022-12-05T01:43:14.142Z,100891.31
2022-12-05T01:45:43.543Z,100888.72
2022-12-05T01:48:19.580Z,100888.72
2022-12-05T01:50:47.787Z,100884.53
2022-12-05T01:53:16.006Z,100880.88
2022-12-05T01:55:43.207Z,100878.28
2022-12-05T01:58:10.700Z,100884.41
2022-12-05T02:00:41.064Z,100881.88
2022-12-05T02:03:12.568Z,100878.50
2022-12-05T02:05:39.173Z,100875.09
2022-12-05T02:08:08.619Z,100875.59
2022-12-05T02:10:39.050Z,100878.56
2022-12-05T02:13:26.815Z,100874.22
2022-12-05T02:16:10.174Z,100873.97
2022-12-05T02:19:06.160Z,100867.47
2022-12-05T02:21:51.557Z,100871.16
2022-12-05T02:24:39.711Z,100860.38
2022-12-05T02:27:31.831Z,100869.09
2022-12-05T02:30:01.358Z,100866.25
2022-12-05T02:32:53.367Z,100867.78
2022-12-05T02:35:34.846Z,100858.75
2022-12-05T02:38:19.965Z,100855.16
2022-12-05T02:40:58.958Z,100857.78
2022-12-05T02:43:41.704Z,100855.91
2022-12-05T02:46:13.489Z,100848.88
2022-12-05T02:48:42.475Z,100851.31
2022-12-05T02:51:12.693Z,100847.56
2022-12-05T02:53:40.958Z,100853.31
2022-12-05T02:56:07.889Z,100849.91
2022-12-05T02:58:39.008Z,100850.28
2022-12-05T03:01:06.504Z,100845.16
2022-12-05T03:03:33.791Z,100848.44
2022-12-05T03:06:16.932Z,100848.19
2022-12-05T03:08:52.558Z,100846.03
2022-12-05T03:11:19.773Z,100849.50
2022-12-05T03:13:51.842Z,100854.22
2022-12-05T03:16:36.849Z,100857.47
2022-12-05T03:19:11.880Z,100857.66
2022-12-05T03:22:01.841Z,100860.28
2022-12-05T03:24:29.141Z,100861.97
2022-12-05T03:27:20.119Z,100861.63
2022-12-05T03:29:54.444Z,100857.38
2022-12-05T03:32:30.118Z,100857.53
2022-12-05T03:35:20.560Z,100864.22
2022-12-05T03:37:58.409Z,100860.50
2022-12-05T03:40:51.552Z,100861.97
2022-12-05T03:43:29.767Z,100854.91
2022-12-05T03:45:56.341Z,100858.41
2022-12-05T03:48:34.783Z,100857.84
2022-12-05T03:51:03.729Z,100866.03
2022-12-05T03:53:37.057Z,100872.00
2022-12-05T03:56:09.889Z,100868.78
2022-12-05T03:58:49.431Z,100854.25
2022-12-05T04:01:21.361Z,100855.00
2022-12-05T04:03:57.906Z,100851.72
2022-12-05T04:06:29.073Z,100853.31
2022-12-05T04:09:18.396Z,100849.97
2022-12-05T04:11:50.044Z,100855.50
2022-12-05T04:14:22.521Z,100858.06
2022-12-05T04:17:05.219Z,100858.00
2022-12-05T04:20:06.696Z,100853.22
2022-12-05T04:22:34.545Z,100854.19
2022-12-05T04:25:22.313Z,100857.47
2022-12-05T04:28:04.405Z,100862.19
2022-12-05T04:30:43.048Z,100867.25
2022-12-05T04:33:21.617Z,100859.53
2022-12-05T04:35:56.387Z,100853.78
2022-12-05T04:38:32.682Z,100852.50
2022-12-05T04:41:03.140Z,100856.06
2022-12-05T04:43:35.409Z,100847.16
2022-12-05T04:46:06.275Z,100854.66
2022-12-05T04:48:35.498Z,100843.44
2022-12-05T04:51:04.725Z,100849.09
2022-12-05T04:53:32.262Z,100849.09
2022-12-05T04:56:01.907Z,100847.69
2022-12-05T04:58:30.566Z,100851.81
2022-12-05T05:01:13.111Z,100850.56
2022-12-05T05:03:44.190Z,100867.25
2022-12-05T05:06:12.774Z,100864.81
2022-12-05T05:08:57.361Z,100874.06
2022-12-05T05:11:29.487Z,100870.75
2022-12-05T05:13:56.281Z,100880.13
2022-12-05T05:16:28.682Z,100878.41
2022-12-05T05:18:56.038Z,100875.19
2022-12-05T05:21:28.861Z,100882.00
2022-12-05T05:23:56.425Z,100881.53
2022-12-05T05:26:24.548Z,100866.25
2022-12-05T05:28:51.774Z,100866.84
2022-12-05T05:31:20.211Z,100867.31
2022-12-05T05:33:55.251Z,100865.88
2022-12-05T05:36:26.498Z,100858.22
2022-12-05T05:38:55.695Z,100853.38
2022-12-05T05:41:23.372Z,100858.94
2022-12-05T05:43:50.950Z,100858.81
2022-12-05T05:46:20.137Z,100862.00
2022-12-05T05:48:47.975Z,100867.91
2022-12-05T05:51:17.349Z,100869.06
2022-12-05T05:53:44.382Z,100867.22
2022-12-05T05:56:18.543Z,100868.84
2022-12-05T05:58:55.383Z,100872.75
2022-12-05T06:01:22.304Z,100872.19
2022-12-05T06:03:50.688Z,100866.94
2022-12-05T06:06:18.677Z,100862.38
2022-12-05T06:08:46.004Z,100864.84
2022-12-05T06:11:21.624Z,100866.47
2022-12-05T06:13:52.566Z,100861.00
2022-12-05T06:16:19.521Z,100869.13
2022-12-05T06:18:46.117Z,100870.38
2022-12-05T06:21:16.180Z,100866.88
2022-12-05T06:23:43.312Z,100865.66
2022-12-05T06:26:12.265Z,100862.66
2022-12-05T06:28:39.486Z,100866.66
2022-12-05T06:31:12.762Z,100863.19
2022-12-05T06:33:39.689Z,100862.59
2022-12-05T06:36:11.814Z,100867.38
2022-12-05T06:38:41.987Z,100860.84
2022-12-05T06:41:20.047Z,100867.97
2022-12-05T06:43:47.310Z,100868.78
2022-12-05T06:46:15.916Z,100873.53
2022-12-05T06:48:42.547Z,100871.06
2022-12-05T06:51:11.220Z,100868.22
2022-12-05T06:53:38.818Z,100865.94
2022-12-05T06:56:08.159Z,100875.56
2022-12-05T06:58:35.074Z,100873.09
2022-12-05T07:01:20.485Z,100868.16
2022-12-05T07:03:51.030Z,100870.72
2022-12-05T07:06:17.536Z,100870.88
2022-12-05T07:08:44.925Z,100869.19
2022-12-05T07:11:12.126Z,100871.88
2022-12-05T07:13:38.667Z,100869.06
2022-12-05T07:16:07.580Z,100883.03
2022-12-05T07:18:35.891Z,100879.03
2022-12-05T07:21:13.188Z,100883.09
2022-12-05T07:23:42.547Z,100878.31
2022-12-05T07:26:11.724Z,100875.78
2022-12-05T07:28:38.669Z,100879.78
2022-12-05T07:31:10.114Z,100878.91
2022-12-05T07:33:37.251Z,100878.34
2022-12-05T07:36:10.837Z,100878.31
2022-12-05T07:38:38.305Z,100880.38
2022-12-05T07:41:13.627Z,100883.66
2022-12-05T07:43:41.460Z,100888.25
2022-12-05T07:46:11.359Z,100884.72
2022-12-05T07:48:39.289Z,100882.69
2022-12-05T07:51:08.018Z,100887.41
2022-12-05T07:53:35.017Z,100891.28
2022-12-05T07:56:04.256Z,100893.31
2022-12-05T07:58:32.466Z,100887.19
2022-12-05T08:01:14.279Z,100885.69
2022-12-05T08:03:41.625Z,100889.81
2022-12-05T08:06:11.999Z,100878.56
2022-12-05T08:08:39.114Z,100880.94
2022-12-05T08:11:11.733Z,100883.59
2022-12-05T08:13:38.801Z,100887.38
2022-12-05T08:16:08.096Z,100895.41
2022-12-05T08:18:35.535Z,100893.16
2022-12-05T08:21:04.062Z,100887.97
2022-12-05T08:23:32.470Z,100895.19
2022-12-05T08:26:04.405Z,100891.06
2022-12-05T08:28:32.173Z,100895.22
2022-12-05T08:31:10.693Z,100898.22
2022-12-05T08:33:38.516Z,100898.16
2022-12-05T08:36:10.615Z,100895.56
2022-12-05T08:38:37.552Z,100905.06
2022-12-05T08:41:06.200Z,100906.53
2022-12-05T08:43:33.572Z,100911.91
2022-12-05T08:46:01.312Z,100895.31
2022-12-05T08:48:30.710Z,100910.31
2022-12-05T08:50:57.652Z,100912.56
2022-12-05T08:53:25.141Z,100910.53
2022-12-05T08:55:51.729Z,100909.56
2022-12-05T08:58:18.541Z,100909.88
2022-12-05T09:00:45.303Z,100915.22
2022-12-05T09:03:12.258Z,100924.44
2022-12-05T09:05:39.538Z,100918.91
2022-12-05T09:08:06.431Z,100925.00
2022-12-05T09:10:33.751Z,100918.66
2022-12-05T09:13:00.284Z,100923.69
2022-12-05T09:15:26.936Z,100931.44
2022-12-05T09:17:54.559Z,100924.03
2022-12-05T09:20:22.090Z,100930.53
2022-12-05T09:22:48.654Z,100923.84
2022-12-05T09:25:15.166Z,100926.16
2022-12-05T09:27:42.173Z,100931.91
2022-12-05T09:30:09.361Z,100930.97
2022-12-05T09:32:37.258Z,100922.22
2022-12-05T09:35:04.206Z,100921.50
2022-12-05T09:37:39.848Z,100925.72
2022-12-05T09:40:07.862Z,100919.38
2022-12-05T09:43:05.064Z,100904.25
2022-12-05T09:45:44.404Z,100905.19
2022-12-05T09:48:16.520Z,100906.06
2022-12-05T09:51:12.450Z,100907.31
2022-12-05T09:53:42.505Z,100907.50
2022-12-05T09:56:08.972Z,100906.53
2022-12-05T09:58:46.763Z,100901.72
2022-12-05T10:01:13.246Z,100897.88
2022-12-05T10:03:47.379Z,100904.59
2022-12-05T10:06:14.196Z,100909.03
2022-12-05T10:09:14.041Z,100908.44
2022-12-05T10:11:53.963Z,100899.69
2022-12-05T10:14:42.972Z,100903.13
2022-12-05T10:17:21.272Z,100891.59
2022-12-05T10:19:52.167Z,100904.03
2022-12-05T10:22:25.762Z,100897.00
2022-12-05T10:24:56.896Z,100898.44
2022-12-05T10:27:39.582Z,100894.75
2022-12-05T10:30:15.182Z,100889.69
2022-12-05T10:33:08.001Z,100894.44
2022-12-05T10:35:39.051Z,100894.06
2022-12-05T10:38:07.625Z,100889.97
2022-12-05T10:40:37.311Z,100896.81
2022-12-05T10:43:08.758Z,100899.22
2022-12-05T10:45:43.909Z,100899.41
2022-12-05T10:48:17.602Z,100888.75
2022-12-05T10:50:48.451Z,100900.22
2022-12-05T10:53:24.419Z,100893.97
2022-12-05T10:56:28.057Z,100893.16
2022-12-05T10:58:38.239Z,100894.75
2022-12-05T11:01:09.574Z,100898.34
2022-12-05T11:03:39.474Z,100892.59
2022-12-05T11:06:18.207Z,100890.59
2022-12-05T11:09:04.399Z,100882.72
2022-12-05T11:11:33.761Z,100886.53
2022-12-05T11:14:02.036Z,100883.28
2022-12-05T11:16:34.582Z,100879.00
2022-12-05T11:19:21.859Z,100867.34
2022-12-05T11:21:49.569Z,100870.47
2022-12-05T11:24:21.362Z,100877.03
2022-12-05T11:26:47.973Z,100867.66
2022-12-05T11:29:35.011Z,100872.09
2022-12-05T11:32:04.733Z,100875.44
2022-12-05T11:35:04.535Z,100872.34
2022-12-05T11:38:02.227Z,100875.72
2022-12-05T11:40:53.074Z,100872.25
2022-12-05T11:43:45.758Z,100869.22
2022-12-05T11:46:30.628Z,100875.53
2022-12-05T11:49:16.980Z,100875.34
2022-12-05T11:52:01.176Z,100865.44
2022-12-05T11:55:16.546Z,100872.47
2022-12-05T11:57:52.567Z,100869.06
2022-12-05T12:00:23.269Z,100875.97
2022-12-05T12:03:16.607Z,100870.03
2022-12-05T12:05:55.895Z,100872.94
2022-12-05T12:08:30.747Z,100869.50
2022-12-05T12:11:24.512Z,100874.59
2022-12-05T12:14:19.190Z,100868.13
2022-12-05T12:17:00.510Z,100872.19
2022-12-05T12:19:39.147Z,100872.69
2022-12-05T12:22:43.920Z,100868.84
2022-12-05T12:25:25.192Z,100856.91
2022-12-05T12:28:21.877Z,100859.25
2022-12-05T12:31:15.590Z,100847.63
2022-12-05T12:34:12.888Z,100855.75
2022-12-05T12:37:09.450Z,100852.72
2022-12-05T12:39:52.278Z,100856.13
2022-12-05T12:42:24.416Z,100852.00
2022-12-05T12:45:05.925Z,100850.72
2022-12-05T12:47:57.930Z,100838.97
2022-12-05T12:50:32.553Z,100847.63
2022-12-05T12:53:26.255Z,100841.06
2022-12-05T12:56:11.508Z,100844.56
2022-12-05T12:58:47.647Z,100847.19
2022-12-05T13:01:41.735Z,100843.66
2022-12-05T13:04:16.279Z,100839.41
2022-12-05T13:07:04.927Z,100848.69
2022-12-05T13:09:51.643Z,100843.16
2022-12-05T13:12:25.019Z,100849.47
2022-12-05T13:15:01.167Z,100844.78
2022-12-05T13:17:31.854Z,100846.38
2022-12-05T13:19:59.414Z,100851.88
2022-12-05T13:22:27.816Z,100849.53
2022-12-05T13:24:55.578Z,100852.84
2022-12-05T13:27:27.496Z,100850.81
2022-12-05T13:29:58.549Z,100851.56
2022-12-05T13:32:40.785Z,100848.66
2022-12-05T13:35:07.275Z,100845.28
2022-12-05T13:37:53.279Z,100850.16
2022-12-05T13:40:51.799Z,100854.13
2022-12-05T13:43:28.321Z,100847.41
2022-12-05T13:46:07.805Z,100845.09
2022-12-05T13:48:40.100Z,100850.19
2022-12-05T13:51:34.847Z,100855.69
2022-12-05T13:54:11.424Z,100847.94
2022-12-05T13:57:02.308Z,100845.72
2022-12-05T14:00:07.249Z,100846.03
2022-12-05T14:02:45.597Z,100845.16
2022-12-05T14:05:21.193Z,100851.56
2022-12-05T14:07:58.600Z,100858.75
2022-12-05T14:10:28.943Z,100856.47
2022-12-05T14:13:19.774Z,100854.00
2022-12-05T14:15:48.129Z,100848.28
2022-12-05T14:18:44.501Z,100847.84
2022-12-05T14:21:18.407Z,100846.81
2022-12-05T14:24:18.915Z,100847.44
2022-12-05T14:26:48.222Z,100843.38
2022-12-05T14:29:33.760Z,100843.69
2022-12-05T14:32:14.337Z,100849.47
2022-12-05T14:35:01.940Z,100848.38
2022-12-05T14:37:37.771Z,100847.00
2022-12-05T14:40:20.578Z,100850.63
2022-12-05T14:42:57.771Z,100847.78
2022-12-05T14:45:57.945Z,100840.75
2022-12-05T14:48:47.034Z,100847.28
2022-12-05T14:51:32.871Z,100842.47
2022-12-05T14:54:27.350Z,100846.00
2022-12-05T14:57:11.313Z,100846.53
2022-12-05T14:59:56.097Z,100851.47
2022-12-05T15:02:29.010Z,100849.28
2022-12-05T15:05:03.501Z,100854.81
2022-12-05T15:07:35.014Z,100860.69
2022-12-05T15:10:27.668Z,100861.22
2022-12-05T15:12:59.613Z,100861.75
2022-12-05T15:15:37.314Z,100863.47
2022-12-05T15:18:20.588Z,100857.31
2022-12-05T15:20:57.434Z,100862.25
2022-12-05T15:23:58.087Z,100866.47
2022-12-05T15:26:47.620Z,100859.50
2022-12-05T15:29:25.347Z,100853.69
2022-12-05T15:31:55.685Z,100853.91
2022-12-05T15:34:31.935Z,100860.56
2022-12-05T15:37:19.456Z,100868.97
2022-12-05T15:40:05.577Z,100870.34
2022-12-05T15:42:43.071Z,100872.88
2022-12-05T15:45:13.294Z,100869.28
2022-12-05T15:48:03.173Z,100867.78
2022-12-05T15:50:42.517Z,100867.03
2022-12-05T15:53:34.179Z,100870.75
2022-12-05T15:56:13.141Z,100869.50
2022-12-05T15:58:39.614Z,100875.44
2022-12-05T16:01:25.331Z,100875.81
2022-12-05T16:03:59.971Z,100877.75
2022-12-05T16:06:33.058Z,100877.66
2022-12-05T16:09:07.566Z,100882.53
2022-12-05T16:11:38.627Z,100878.00
2022-12-05T16:14:07.622Z,100883.50
2022-12-05T16:16:37.260Z,100875.75
2022-12-05T16:19:15.722Z,100884.78
2022-12-05T16:21:46.013Z,100881.19
2022-12-05T16:24:18.943Z,100884.88
2022-12-05T16:26:58.344Z,100882.88
2022-12-05T16:29:28.236Z,100876.09
2022-12-05T16:31:57.495Z,100882.34
2022-12-05T16:34:26.036Z,100887.63
2022-12-05T16:36:55.418Z,100889.66
2022-12-05T16:39:23.225Z,100884.56
2022-12-05T16:41:50.779Z,100884.56
2022-12-05T16:44:46.325Z,100886.25
2022-12-05T16:47:46.439Z,100892.09
2022-12-05T16:50:32.391Z,100889.44
2022-12-05T16:53:09.278Z,100892.66
2022-12-05T16:55:40.145Z,100890.97
2022-12-05T16:58:11.375Z,100894.13
2022-12-05T17:00:37.963Z,100896.44
2022-12-05T17:03:32.217Z,100885.75
2022-12-05T17:05:52.716Z,100881.47
2022-12-05T17:08:19.305Z,100875.88
2022-12-05T17:10:46.826Z,100884.69
2022-12-05T17:13:15.282Z,100886.59
2022-12-05T17:15:42.745Z,100886.25
2022-12-05T17:18:20.371Z,100883.00
2022-12-05T17:20:50.984Z,100880.75
2022-12-05T17:23:18.806Z,100879.06
2022-12-05T17:25:54.678Z,100886.03
2022-12-05T17:28:21.982Z,100882.13
2022-12-05T17:30:49.325Z,100879.81
2022-12-05T17:33:18.211Z,100884.34
2022-12-05T17:35:45.574Z,100886.59
2022-12-05T17:38:12.296Z,100897.13
2022-12-05T17:40:40.103Z,100891.06
2022-12-05T17:43:06.811Z,100898.19
2022-12-05T17:45:33.849Z,100894.13
2022-12-05T17:48:00.444Z,100901.03
2022-12-05T17:50:27.805Z,100894.22
2022-12-05T17:53:00.478Z,100894.75
2022-12-05T17:55:29.620Z,100894.00
2022-12-05T17:57:56.643Z,100901.56
2022-12-05T18:00:24.307Z,100889.22
2022-12-05T18:02:52.583Z,100887.09
2022-12-05T18:05:19.861Z,100899.97
2022-12-05T18:07:47.406Z,100903.47
2022-12-05T18:10:17.601Z,100903.47
2022-12-05T18:12:44.825Z,100906.66
2022-12-05T18:15:12.643Z,100905.81
2022-12-05T18:17:39.279Z,100903.53
2022-12-05T18:20:09.267Z,100910.88
2022-12-05T18:22:35.939Z,100915.59
2022-12-05T18:25:03.530Z,100911.34
2022-12-05T18:27:30.449Z,100914.53
2022-12-05T18:29:57.141Z,100917.28
2022-12-05T18:32:23.935Z,100912.38
2022-12-05T18:34:50.501Z,100912.72
2022-12-05T18:37:18.645Z,100912.59
2022-12-05T18:39:45.887Z,100917.19
2022-12-05T18:42:15.220Z,100918.13
2022-12-05T18:44:42.333Z,100923.88
2022-12-05T18:47:09.108Z,100915.16
2022-12-05T18:49:35.785Z,100917.06
2022-12-05T18:52:02.518Z,100916.31
2022-12-05T18:54:29.086Z,100918.34
2022-12-05T18:56:55.881Z,100924.69
2022-12-05T18:59:22.546Z,100918.34
2022-12-05T19:01:50.169Z,100916.44
2022-12-05T19:04:19.121Z,100920.03
2022-12-05T19:06:49.035Z,100922.25
2022-12-05T19:09:17.880Z,100925.56
2022-12-05T19:11:47.743Z,100920.22
2022-12-05T19:14:16.014Z,100917.97
2022-12-05T19:16:43.004Z,100917.03
2022-12-05T19:19:13.566Z,100921.91
2022-12-05T19:21:40.469Z,100927.19
2022-12-05T19:24:08.926Z,100922.34
2022-12-05T19:26:36.429Z,100929.59
2022-12-05T19:29:03.922Z,100929.91
2022-12-05T19:31:31.537Z,100926.38
2022-12-05T19:34:05.573Z,100917.78
2022-12-05T19:36:37.959Z,100916.38
2022-12-05T19:39:30.263Z,100919.25
2022-12-05T19:42:00.647Z,100916.59
2022-12-05T19:44:27.739Z,100924.47
2022-12-05T19:46:54.928Z,100919.59
2022-12-05T19:49:23.033Z,100921.38
2022-12-05T19:51:49.904Z,100922.13
2022-12-05T19:54:21.766Z,100919.06
2022-12-05T19:56:48.340Z,100920.66
2022-12-05T19:59:16.660Z,100924.47
2022-12-05T20:01:43.694Z,100925.31
2022-12-05T20:04:15.415Z,100927.97
2022-12-05T20:06:47.741Z,100920.97
2022-12-05T20:09:18.607Z,100918.63
2022-12-05T20:11:52.662Z,100924.88
2022-12-05T20:14:21.656Z,100912.34
2022-12-05T20:16:48.779Z,100915.53
2022-12-05T20:19:15.503Z,100917.88
2022-12-05T20:21:42.126Z,100917.66
2022-12-05T20:24:08.777Z,100918.94
2022-12-05T20:26:38.034Z,100917.44
2022-12-05T20:29:06.049Z,100913.19
2022-12-05T20:31:35.073Z,100921.06
2022-12-05T20:34:02.715Z,100913.84
2022-12-05T20:36:33.067Z,100909.19
2022-12-05T20:39:14.092Z,100917.25
2022-12-05T20:41:40.719Z,100912.34
2022-12-05T20:44:08.683Z,100911.19
2022-12-05T20:46:36.741Z,100909.41
2022-12-05T20:49:03.530Z,100910.97
2022-12-05T20:51:32.220Z,100913.84
2022-12-05T20:54:00.652Z,100913.41
2022-12-05T20:56:29.878Z,100915.97
2022-12-05T20:59:00.148Z,100917.25
2022-12-05T21:01:28.887Z,100901.97
2022-12-05T21:03:56.491Z,100903.47
2022-12-05T21:06:28.797Z,100907.72
2022-12-05T21:08:56.376Z,100905.91
2022-12-05T21:11:24.649Z,100900.38
2022-12-05T21:13:51.921Z,100893.91
2022-12-05T21:16:20.739Z,100893.38
2022-12-05T21:18:47.867Z,100894.22
2022-12-05T21:21:17.597Z,100892.84
2022-12-05T21:23:46.180Z,100890.38
2022-12-05T21:26:16.075Z,100892.84
2022-12-05T21:28:43.718Z,100888.38
2022-12-05T21:31:15.878Z,100895.56
2022-12-05T21:33:46.354Z,100895.88
2022-12-05T21:36:12.896Z,100894.03
2022-12-05T21:38:39.635Z,100894.50
2022-12-05T21:41:06.848Z,100906.06
2022-12-05T21:43:34.983Z,100892.78
2022-12-05T21:46:01.861Z,100895.81
2022-12-05T21:48:28.522Z,100893.16
2022-12-05T21:50:55.412Z,100896.13
2022-12-05T21:53:22.374Z,100893.47
2022-12-05T21:55:59.046Z,100884.13
2022-12-05T21:58:25.851Z,100887.19
2022-12-05T22:00:52.362Z,100894.00
2022-12-05T22:03:18.921Z,100886.56
2022-12-05T22:05:45.438Z,100886.03
2022-12-05T22:08:12.147Z,100884.44
2022-12-05T22:10:38.682Z,100886.88
2022-12-05T22:13:05.222Z,100887.09
2022-12-05T22:15:31.866Z,100878.59
2022-12-05T22:17:58.387Z,100877.50
2022-12-05T22:20:25.056Z,100877.53
2022-12-05T22:22:51.638Z,100876.16
2022-12-05T22:25:18.267Z,100875.50
2022-12-05T22:27:44.777Z,100885.78
2022-12-05T22:30:11.617Z,100882.91
2022-12-05T22:32:38.128Z,100878.78
2022-12-05T22:35:05.029Z,100880.25
2022-12-05T22:37:31.733Z,100872.50
2022-12-05T22:39:58.773Z,100876.13
2022-12-05T22:42:26.939Z,100873.31
2022-12-05T22:44:53.702Z,100870.47
2022-12-05T22:47:20.508Z,100868.25
2022-12-05T22:49:47.465Z,100859.25
2022-12-05T22:52:14.736Z,100857.34
2022-12-05T22:54:41.420Z,100856.25
2022-12-05T22:57:07.952Z,100855.81
2022-12-05T22:59:34.544Z,100865.06
2022-12-05T23:02:01.081Z,100860.66
2022-12-05T23:04:27.666Z,100857.22
2022-12-05T23:06:54.280Z,100853.69
2022-12-05T23:09:21.293Z,100851.38
2022-12-05T23:11:50.456Z,100848.09
2022-12-05T23:14:17.496Z,100850.28
2022-12-05T23:16:44.146Z,100841.41
2022-12-05T23:19:11.233Z,100834.81
2022-12-05T23:21:39.437Z,100829.72
2022-12-05T23:24:08.729Z,100825.00
2022-12-05T23:26:38.387Z,100832.50
2022-12-05T23:29:05.824Z,100828.88
2022-12-05T23:31:32.537Z,100836.53
2022-12-05T23:34:03.210Z,100829.41
2022-12-05T23:36:32.862Z,100829.78
2022-12-05T23:39:00.256Z,100836.16
2022-12-05T23:41:27.396Z,100835.31
2022-12-05T23:43:54.899Z,100840.09
2022-12-05T23:46:24.103Z,100834.34
2022-12-05T23:48:51.947Z,100830.19
2022-12-05T23:51:24.348Z,100838.16
2022-12-05T23:53:59.449Z,100835.00
2022-12-05T23:56:29.147Z,100836.09
2022-12-05T23:58:56.881Z,100826.41
